Time;durP1;ratioP1;P1;durP2;ratioP2;P2;SDS_P1;SDS_P2;PMS_P1;PMS_P2;Temp;Humidity;BMP_temperature;BMP_pressure;BME280_temperature;BME280_humidity;BME280_pressure;Samples;Min_cycle;Max_cycle;Signal;HPM_P1;HPM_P2
2022/05/19 00:02:08;;;;;;;3.63;2.67;;;14.40;99.90;14.30;101332.00;;;;4996126;27;106918;-70
2022/05/19 00:04:34;;;;;;;3.17;2.87;;;14.30;99.90;14.20;101338.00;;;;5013900;27;88512;-70
2022/05/19 00:07:01;;;;;;;3.83;2.57;;;14.30;99.90;14.20;101332.00;;;;4996989;27;88828;-70
2022/05/19 00:09:27;;;;;;;4.97;2.50;;;14.20;99.90;14.20;101322.00;;;;4994910;28;88166;-69
2022/05/19 00:11:55;;;;;;;3.13;2.40;;;14.20;99.90;14.20;101328.00;;;;4994529;27;117784;-69
2022/05/19 00:14:21;;;;;;;3.77;2.83;;;14.10;99.90;14.10;101321.00;;;;4976542;28;99720;-70
2022/05/19 00:16:48;;;;;;;2.90;2.70;;;14.10;99.90;14.10;101319.00;;;;4983113;28;110567;-69
2022/05/19 00:19:15;;;;;;;2.10;2.00;;;14.10;99.90;14.00;101310.00;;;;4997860;27;88056;-70
2022/05/19 00:21:42;;;;;;;2.80;2.37;;;14.00;99.90;14.00;101310.00;;;;4997620;27;88915;-70
2022/05/19 00:24:08;;;;;;;4.07;3.03;;;14.00;99.90;14.00;101315.00;;;;5016799;27;102281;-70
2022/05/19 00:26:34;;;;;;;2.53;2.33;;;14.00;99.90;13.90;101315.00;;;;5016112;27;87917;-69
2022/05/19 00:29:00;;;;;;;2.83;2.47;;;14.00;99.90;13.90;101317.00;;;;5017285;27;107451;-70
2022/05/19 00:31:26;;;;;;;2.90;2.63;;;13.90;99.90;13.80;101315.00;;;;5016948;27;89405;-70
2022/05/19 00:33:52;;;;;;;2.83;2.63;;;13.90;99.90;13.80;101310.00;;;;4982700;28;88851;-70
2022/05/19 00:36:20;;;;;;;2.43;2.07;;;13.80;99.90;13.70;101310.00;;;;5003735;27;110284;-70
2022/05/19 00:38:46;;;;;;;2.90;2.40;;;13.80;99.90;13.70;101307.00;;;;5002543;27;87968;-70
2022/05/19 00:41:14;;;;;;;2.90;2.60;;;13.70;99.90;13.70;101309.00;;;;4978936;28;87991;-70
2022/05/19 00:43:44;;;;;;;2.30;2.10;;;13.70;99.90;13.70;101308.00;;;;5014911;27;88361;-69
2022/05/19 00:46:13;;;;;;;3.17;2.30;;;13.70;99.90;13.60;101303.00;;;;5007850;27;87830;-70
2022/05/19 00:49:09;;;;;;;2.60;2.40;;;13.60;99.90;13.50;101304.00;;;;4997045;28;109164;-70
2022/05/19 00:51:44;;;;;;;2.13;1.97;;;13.60;99.90;13.50;101301.00;;;;4996698;27;109117;-69
2022/05/19 00:54:21;;;;;;;2.83;2.63;;;13.60;99.90;13.50;101298.00;;;;4984277;28;104989;-70
2022/05/19 00:57:05;;;;;;;3.83;2.73;;;13.50;99.90;13.50;101307.00;;;;4977973;28;95102;-70
2022/05/19 00:59:54;;;;;;;3.17;2.33;;;13.50;99.90;13.40;101306.00;;;;4978455;28;97758;-70
2022/05/19 01:02:31;;;;;;;2.50;2.30;;;13.50;99.90;13.40;101297.00;;;;4980616;27;112086;-69
2022/05/19 01:05:13;;;;;;;2.33;2.13;;;13.40;99.90;13.30;101296.00;;;;5009164;27;106918;-70
2022/05/19 01:08:03;;;;;;;2.30;2.17;;;13.40;99.90;13.30;101297.00;;;;4998866;27;87956;-69
2022/05/19 01:10:28;;;;;;;2.53;2.33;;;13.30;99.90;13.20;101297.00;;;;5016363;27;87518;-70
2022/05/19 01:12:54;;;;;;;4.63;2.47;;;13.20;99.90;13.20;101288.00;;;;5016449;27;87835;-70
2022/05/19 01:15:21;;;;;;;4.07;2.57;;;13.20;99.90;13.10;101294.00;;;;5016544;27;116588;-70
2022/05/19 01:17:48;;;;;;;2.53;2.33;;;13.20;99.90;13.10;101293.00;;;;4996974;27;101624;-70
2022/05/19 01:20:26;;;;;;;9.03;2.73;;;13.10;99.90;13.00;101289.00;;;;4986919;27;87916;-70
2022/05/19 01:22:58;;;;;;;3.87;2.33;;;13.00;99.90;13.00;101287.00;;;;4991194;28;107017;-69
2022/05/19 01:25:54;;;;;;;2.43;2.10;;;13.00;99.90;12.90;101273.00;;;;5015126;27;94038;-70
2022/05/19 01:28:20;;;;;;;5.57;2.77;;;12.90;99.90;12.90;101266.00;;;;4998030;27;87785;-70
2022/05/19 01:30:46;;;;;;;2.57;2.20;;;12.90;99.90;12.80;101265.00;;;;5005683;27;107872;-70
2022/05/19 01:33:12;;;;;;;2.80;2.00;;;12.80;99.90;12.80;101265.00;;;;5015221;27;116800;-70
2022/05/19 01:35:38;;;;;;;2.87;2.57;;;12.80;99.90;12.70;101264.00;;;;5001883;27;119087;-70
2022/05/19 01:38:15;;;;;;;3.13;2.73;;;12.70;99.90;12.70;101260.00;;;;4996532;28;87630;-70
2022/05/19 01:40:52;;;;;;;3.80;2.87;;;12.70;99.90;12.60;101260.00;;;;4980797;28;87058;-70
2022/05/19 01:43:53;;;;;;;3.20;2.50;;;12.70;99.90;12.60;101260.00;;;;4996357;28;88243;-70
2022/05/19 01:46:30;;;;;;;2.37;1.93;;;12.60;99.90;12.50;101262.00;;;;5007899;27;88294;-70
2022/05/19 01:49:14;;;;;;;2.60;2.37;;;12.50;99.90;12.40;101265.00;;;;4996303;27;103305;-70
2022/05/19 01:52:16;;;;;;;2.67;2.33;;;12.50;99.90;12.40;101260.00;;;;4985926;27;88218;-70
2022/05/19 01:54:59;;;;;;;3.07;2.00;;;12.40;99.90;12.30;101262.00;;;;4997935;27;88029;-70
2022/05/19 01:57:31;;;;;;;2.73;2.53;;;12.40;99.90;12.30;101265.00;;;;4996082;28;87879;-70
2022/05/19 02:00:10;;;;;;;2.17;2.07;;;12.30;99.90;12.30;101260.00;;;;4977976;28;89552;-71
2022/05/19 02:03:02;;;;;;;2.07;1.57;;;12.30;99.90;12.20;101259.00;;;;4985409;27;88121;-70
2022/05/19 02:06:05;;;;;;;2.50;2.30;;;12.30;99.90;12.20;101257.00;;;;4997225;27;87904;-70
2022/05/19 02:08:38;;;;;;;1.73;1.63;;;12.40;99.90;12.20;101256.00;;;;4997419;27;89304;-70
2022/05/19 02:11:09;;;;;;;4.37;2.77;;;12.30;99.90;12.20;101258.00;;;;5015551;27;103318;-70
2022/05/19 02:13:36;;;;;;;2.43;2.23;;;12.20;99.90;12.20;101256.00;;;;5000573;27;87986;-70
2022/05/19 02:16:06;;;;;;;2.53;2.33;;;12.20;99.90;12.20;101256.00;;;;4984455;27;119593;-70
2022/05/19 02:18:32;;;;;;;2.33;2.13;;;12.20;99.90;12.20;101253.00;;;;4994056;27;109863;-70
2022/05/19 02:21:02;;;;;;;3.20;2.30;;;12.20;99.90;12.10;101247.00;;;;5016029;27;87844;-70
2022/05/19 02:23:31;;;;;;;9.50;2.00;;;12.20;99.90;12.10;101246.00;;;;4983454;28;88283;-70
2022/05/19 02:25:56;;;;;;;3.60;2.83;;;12.10;99.90;12.10;101247.00;;;;4985611;27;88984;-70
2022/05/19 02:28:44;;;;;;;2.43;2.17;;;12.10;99.90;12.00;101240.00;;;;5014557;27;116745;-70
2022/05/19 02:31:10;;;;;;;3.43;2.57;;;12.00;99.90;11.90;101246.00;;;;4996820;27;94387;-70
2022/05/19 02:33:35;;;;;;;2.73;2.53;;;12.00;99.90;11.90;101254.00;;;;5001509;27;107791;-70
2022/05/19 02:36:04;;;;;;;2.47;2.10;;;11.90;99.90;11.90;101242.00;;;;5004640;27;88885;-71
2022/05/19 02:38:29;;;;;;;2.20;1.97;;;12.00;99.90;11.90;101251.00;;;;4996094;27;103745;-70
2022/05/19 02:40:55;;;;;;;2.13;1.83;;;11.90;99.90;11.90;101251.00;;;;4998245;27;109780;-70
2022/05/19 02:43:24;;;;;;;2.17;2.00;;;11.90;99.90;11.90;101243.00;;;;4996907;27;87778;-71
2022/05/19 02:45:50;;;;;;;2.20;2.00;;;11.90;99.90;11.80;101247.00;;;;4995652;27;92316;-70
2022/05/19 02:48:17;;;;;;;2.60;2.40;;;11.90;99.90;11.80;101243.00;;;;4994973;28;88388;-70
2022/05/19 02:50:44;;;;;;;2.47;2.27;;;11.80;99.90;11.80;101258.00;;;;4996383;27;87849;-70
2022/05/19 02:53:11;;;;;;;2.70;1.90;;;11.80;99.90;11.80;101254.00;;;;5006290;27;87659;-70
2022/05/19 02:55:39;;;;;;;2.53;2.07;;;11.80;99.90;11.80;101255.00;;;;5015318;27;109823;-71
2022/05/19 02:58:06;;;;;;;3.53;2.57;;;11.80;99.90;11.70;101259.00;;;;4996172;27;87660;-70
2022/05/19 03:00:32;;;;;;;4.50;3.00;;;11.80;99.90;11.70;101261.00;;;;5015794;27;87746;-70
2022/05/19 03:02:58;;;;;;;2.83;2.63;;;11.70;99.90;11.70;101269.00;;;;5006304;27;108588;-70
2022/05/19 03:05:28;;;;;;;2.73;2.53;;;11.70;99.90;11.70;101265.00;;;;4994194;28;102138;-70
2022/05/19 03:07:55;;;;;;;3.47;3.13;;;11.70;99.90;11.60;101274.00;;;;4960919;28;90359;-70
2022/05/19 03:10:21;;;;;;;5.53;2.93;;;11.70;99.90;11.60;101274.00;;;;4997294;27;108482;-70
2022/05/19 03:12:47;;;;;;;2.50;2.30;;;11.60;99.90;11.50;101274.00;;;;5010740;27;87952;-70
2022/05/19 03:15:12;;;;;;;2.73;2.53;;;11.60;99.90;11.50;101277.00;;;;4992989;27;117384;-69
2022/05/19 03:17:38;;;;;;;4.03;3.13;;;11.50;99.90;11.50;101274.00;;;;4976180;28;107261;-69
2022/05/19 03:20:06;;;;;;;6.07;3.33;;;11.50;99.90;11.50;101275.00;;;;4994951;27;110779;-70
2022/05/19 03:22:33;;;;;;;3.17;2.83;;;11.50;99.90;11.40;101275.00;;;;4998080;27;87017;-69
2022/05/19 03:24:59;;;;;;;3.40;2.97;;;11.50;99.90;11.40;101279.00;;;;5012239;27;103048;-70
2022/05/19 03:27:25;;;;;;;2.43;2.13;;;11.50;99.90;11.40;101278.00;;;;5014719;27;101748;-69
2022/05/19 03:29:51;;;;;;;2.50;2.30;;;11.50;99.90;11.40;101276.00;;;;5014320;27;88394;-70
2022/05/19 03:32:18;;;;;;;3.27;2.97;;;11.40;99.90;11.40;101274.00;;;;5013522;27;88197;-69
2022/05/19 03:34:43;;;;;;;4.37;3.20;;;11.40;99.90;11.40;101279.00;;;;4994563;28;99612;-69
2022/05/19 03:37:09;;;;;;;2.63;2.43;;;11.40;99.90;11.40;101276.00;;;;4994602;27;104839;-70
2022/05/19 03:39:36;;;;;;;3.37;3.07;;;11.40;99.90;11.40;101282.00;;;;4975360;28;110476;-70
2022/05/19 03:42:06;;;;;;;2.83;2.63;;;11.40;99.90;11.40;101278.00;;;;4994353;27;108642;-69
2022/05/19 03:44:33;;;;;;;2.27;2.07;;;11.40;99.90;11.40;101282.00;;;;4995296;27;88752;-71
2022/05/19 03:46:58;;;;;;;3.47;3.03;;;11.40;99.90;11.40;101280.00;;;;4975678;28;90961;-69
2022/05/19 03:49:24;;;;;;;5.37;2.83;;;11.40;99.90;11.40;101278.00;;;;4993848;27;110023;-69
2022/05/19 03:51:50;;;;;;;3.30;2.33;;;11.40;99.90;11.40;101279.00;;;;4976522;28;87863;-69
2022/05/19 03:54:16;;;;;;;2.63;2.43;;;11.40;99.90;11.40;101282.00;;;;4992148;27;88981;-69
2022/05/19 03:56:42;;;;;;;3.17;2.53;;;11.40;99.90;11.40;101284.00;;;;5013568;27;101747;-70
2022/05/19 03:59:08;;;;;;;2.77;2.50;;;11.40;99.90;11.40;101278.00;;;;4995008;27;92198;-70
2022/05/19 04:01:35;;;;;;;2.97;2.43;;;11.40;99.90;11.50;101283.00;;;;5014386;27;108840;-70
2022/05/19 04:04:01;;;;;;;2.80;2.57;;;11.40;99.90;11.50;101280.00;;;;4981348;28;88005;-69
2022/05/19 04:06:27;;;;;;;4.33;2.63;;;11.50;99.90;11.60;101280.00;;;;4994204;27;102642;-70
2022/05/19 04:08:52;;;;;;;5.17;3.00;;;11.60;99.90;11.60;101279.00;;;;4993893;28;109901;-69
2022/05/19 04:11:18;;;;;;;3.67;2.50;;;11.60;99.90;11.70;101283.00;;;;4993661;28;109420;-69
2022/05/19 04:13:44;;;;;;;3.13;2.83;;;11.70;99.90;11.80;101289.00;;;;5005764;27;89183;-70
2022/05/19 04:16:10;;;;;;;3.57;3.00;;;11.70;99.90;11.90;101281.00;;;;5014478;27;88007;-70
2022/05/19 04:18:37;;;;;;;3.20;2.53;;;11.80;99.90;12.00;101288.00;;;;5013749;27;91494;-70
2022/05/19 04:21:03;;;;;;;2.93;2.73;;;11.90;99.90;12.10;101283.00;;;;5013589;27;100750;-70
2022/05/19 04:23:29;;;;;;;2.53;2.33;;;12.00;99.90;12.20;101298.00;;;;5012558;27;107919;-69
2022/05/19 04:25:56;;;;;;;2.67;2.13;;;12.20;99.90;12.40;101297.00;;;;5011578;27;108449;-70
2022/05/19 04:28:21;;;;;;;2.23;2.07;;;12.30;99.90;12.60;101293.00;;;;5014417;27;101370;-70
2022/05/19 04:30:47;;;;;;;3.77;2.83;;;12.50;99.90;12.70;101296.00;;;;5012921;27;109344;-70
2022/05/19 04:33:13;;;;;;;2.80;2.60;;;12.80;99.90;12.80;101289.00;;;;4985233;28;115925;-70
2022/05/19 04:35:39;;;;;;;5.03;2.90;;;12.80;99.90;13.00;101295.00;;;;4996674;27;88044;-70
2022/05/19 04:38:15;;;;;;;3.20;2.57;;;12.90;99.90;13.10;101296.00;;;;5010258;27;87823;-70
2022/05/19 04:40:47;;;;;;;3.13;2.43;;;13.00;99.90;13.30;101300.00;;;;4980641;27;87872;-70
2022/05/19 04:43:22;;;;;;;3.13;2.07;;;13.20;99.90;13.40;101293.00;;;;5001721;27;90107;-70
2022/05/19 04:45:50;;;;;;;2.47;2.27;;;13.30;99.90;13.60;101298.00;;;;4982834;27;88814;-70
2022/05/19 04:48:16;;;;;;;2.90;2.37;;;13.50;99.90;13.80;101299.00;;;;5010426;27;87886;-70
2022/05/19 04:50:43;;;;;;;2.50;2.30;;;13.70;99.90;14.00;101303.00;;;;5010335;27;91319;-70
2022/05/19 04:53:08;;;;;;;3.00;2.30;;;14.00;99.90;14.20;101306.00;;;;5008147;27;94149;-70
2022/05/19 04:55:37;;;;;;;4.67;2.73;;;14.00;99.90;14.30;101309.00;;;;5004059;27;102550;-70
2022/05/19 04:58:04;;;;;;;4.20;2.87;;;14.20;99.90;14.50;101307.00;;;;4991697;27;88078;-70
2022/05/19 05:00:29;;;;;;;2.20;1.53;;;14.40;99.90;14.70;101302.00;;;;5002688;27;87020;-70
2022/05/19 05:02:55;;;;;;;2.37;2.00;;;14.60;99.90;14.90;101311.00;;;;4999852;27;117867;-70
2022/05/19 05:05:21;;;;;;;3.97;2.07;;;14.80;99.90;15.10;101310.00;;;;5016923;27;116983;-70
2022/05/19 05:07:47;;;;;;;5.97;2.47;;;15.00;99.90;15.30;101312.00;;;;5017063;27;88884;-70
2022/05/19 05:10:13;;;;;;;2.08;1.90;;;15.20;99.90;15.60;101314.00;;;;4995754;27;108918;-70
2022/05/19 05:12:39;;;;;;;3.25;1.95;;;15.40;99.90;15.80;101320.00;;;;5007423;27;87967;-71
2022/05/19 05:15:06;;;;;;;3.00;1.95;;;15.60;99.90;16.00;101318.00;;;;5017032;27;87866;-70
2022/05/19 05:17:47;;;;;;;3.30;1.67;;;15.80;99.90;16.30;101314.00;;;;5017103;27;87665;-70
2022/05/19 05:20:13;;;;;;;1.85;1.75;;;16.00;99.90;16.50;101312.00;;;;5015665;27;98310;-70
2022/05/19 05:22:39;;;;;;;3.13;2.03;;;16.30;99.90;16.70;101315.00;;;;5015773;27;88394;-70
2022/05/19 05:25:11;;;;;;;3.30;2.30;;;16.50;99.90;17.00;101324.00;;;;4996937;27;88890;-70
2022/05/19 05:27:37;;;;;;;2.97;1.85;;;16.80;99.90;17.20;101316.00;;;;4996954;28;100463;-70
2022/05/19 05:30:21;;;;;;;2.83;2.00;;;17.00;99.90;17.40;101315.00;;;;4996237;28;100174;-70
2022/05/19 05:32:47;;;;;;;1.95;1.70;;;17.20;99.90;17.70;101320.00;;;;5006688;27;118020;-70
2022/05/19 05:35:13;;;;;;;1.95;1.52;;;17.40;99.90;17.90;101315.00;;;;4995447;28;117550;-70
2022/05/19 05:37:38;;;;;;;3.20;1.88;;;17.60;99.90;18.10;101322.00;;;;5006215;27;110208;-70
2022/05/19 05:40:10;;;;;;;2.20;1.77;;;17.90;99.90;18.30;101325.00;;;;5016189;27;87729;-70
2022/05/19 05:42:37;;;;;;;2.92;1.58;;;18.10;99.90;18.60;101335.00;;;;5016764;27;88565;-70
2022/05/19 05:45:12;;;;;;;3.95;1.30;;;18.30;98.50;18.70;101332.00;;;;4997067;27;95185;-70
2022/05/19 05:47:38;;;;;;;2.10;1.77;;;18.70;97.80;18.90;101328.00;;;;4977862;28;87724;-70
2022/05/19 05:50:04;;;;;;;2.58;1.50;;;18.60;97.00;19.10;101329.00;;;;4998025;27;91099;-70
2022/05/19 05:52:39;;;;;;;2.60;1.65;;;18.80;96.10;19.30;101338.00;;;;4995308;28;111745;-70
2022/05/19 05:55:05;;;;;;;1.42;1.33;;;19.10;95.70;19.50;101343.00;;;;4993822;27;116440;-70
2022/05/19 05:57:31;;;;;;;1.20;1.13;;;19.30;94.80;19.80;101344.00;;;;4995254;28;100080;-70
2022/05/19 05:59:56;;;;;;;4.63;1.50;;;19.50;92.00;19.90;101340.00;;;;4996542;27;87663;-70
2022/05/19 06:02:22;;;;;;;1.83;0.80;;;19.70;90.50;20.10;101348.00;;;;4995611;27;118740;-70
2022/05/19 06:04:48;;;;;;;1.38;0.95;;;19.90;88.70;20.30;101346.00;;;;4995622;28;114337;-70
2022/05/19 06:07:19;;;;;;;2.85;1.40;;;20.10;85.40;20.50;101343.00;;;;4996234;27;110211;-70
2022/05/19 06:09:45;;;;;;;0.98;0.98;;;20.30;83.10;20.70;101349.00;;;;4996245;28;87750;-69
2022/05/19 06:12:11;;;;;;;1.00;1.00;;;20.40;78.80;20.80;101348.00;;;;4981584;27;116619;-68
2022/05/19 06:14:37;;;;;;;1.02;0.85;;;20.60;76.30;20.90;101347.00;;;;5016080;27;106954;-70
2022/05/19 06:17:03;;;;;;;0.77;0.77;;;20.70;74.20;21.10;101349.00;;;;4998961;27;103359;-68
2022/05/19 06:19:28;;;;;;;1.20;0.90;;;20.80;71.80;21.10;101356.00;;;;4996215;27;87930;-70
2022/05/19 06:21:54;;;;;;;1.73;1.08;;;20.90;66.70;21.20;101357.00;;;;4994401;27;118131;-68
2022/05/19 06:24:20;;;;;;;4.03;1.63;;;21.00;66.00;21.30;101352.00;;;;5015403;27;117811;-68
2022/05/19 06:26:45;;;;;;;2.28;1.00;;;21.00;66.50;21.40;101361.00;;;;5005251;27;109780;-68
2022/05/19 06:29:12;;;;;;;1.50;1.30;;;21.20;65.20;21.50;101355.00;;;;5014123;27;108263;-68
2022/05/19 06:31:37;;;;;;;1.33;1.23;;;21.30;61.90;21.50;101352.00;;;;5016989;27;88043;-68
2022/05/19 06:34:06;;;;;;;2.72;1.17;;;21.30;60.70;21.60;101362.00;;;;5015247;27;116332;-68
2022/05/19 06:36:32;;;;;;;0.70;0.70;;;21.40;60.50;21.70;101359.00;;;;5013705;27;87731;-68
2022/05/19 06:39:00;;;;;;;1.27;1.08;;;21.50;60.90;21.80;101359.00;;;;4995084;28;110342;-68
2022/05/19 06:44:10;;;;;;;0.73;0.70;;;21.80;59.70;22.10;101369.00;;;;5016672;27;87707;-68
2022/05/19 06:46:48;;;;;;;1.40;1.17;;;21.90;58.70;22.30;101362.00;;;;4984581;27;102410;-68
2022/05/19 06:49:14;;;;;;;1.35;0.90;;;22.00;57.50;22.30;101368.00;;;;5001933;27;105522;-69
2022/05/19 06:51:40;;;;;;;1.08;0.75;;;22.10;56.60;22.40;101363.00;;;;4996119;28;88877;-68
2022/05/19 06:54:06;;;;;;;1.40;1.15;;;22.20;56.30;22.50;101360.00;;;;5003828;27;88838;-69
2022/05/19 06:56:31;;;;;;;1.73;1.40;;;22.30;54.70;22.50;101362.00;;;;5009847;27;88218;-69
2022/05/19 06:58:57;;;;;;;1.65;1.15;;;22.30;55.00;22.60;101360.00;;;;5015920;27;88104;-68
2022/05/19 07:01:23;;;;;;;0.75;0.70;;;22.40;54.80;22.70;101359.00;;;;5002999;27;118381;-68
2022/05/19 07:03:49;;;;;;;2.08;1.25;;;22.50;53.80;22.80;101357.00;;;;4996060;28;88496;-68
2022/05/19 07:06:15;;;;;;;2.45;0.93;;;22.60;53.30;22.90;101351.00;;;;5005962;27;87792;-70
2022/05/19 07:08:41;;;;;;;0.90;0.85;;;22.70;53.10;23.10;101344.00;;;;4995989;27;106890;-69
2022/05/19 07:11:24;;;;;;;1.27;1.10;;;22.80;53.10;23.20;101342.00;;;;4994936;27;89706;-69
2022/05/19 07:14:07;;;;;;;1.30;1.00;;;22.90;52.60;23.40;101351.00;;;;4995401;27;88084;-68
2022/05/19 07:16:34;;;;;;;1.25;1.02;;;23.10;52.00;23.50;101345.00;;;;4995139;27;89174;-68
2022/05/19 07:21:47;;;;;;;1.70;1.10;;;23.30;51.70;23.70;101330.00;;;;4995151;27;87867;-67
2022/05/19 07:24:16;;;;;;;0.80;0.75;;;23.40;50.20;23.80;101332.00;;;;5012051;27;88295;-69
2022/05/19 07:26:44;;;;;;;2.10;0.75;;;23.50;49.80;23.80;101341.00;;;;5006313;27;87797;-68
2022/05/19 07:29:10;;;;;;;0.80;0.55;;;23.50;49.40;23.90;101336.00;;;;5006795;27;87180;-67
2022/05/19 07:31:36;;;;;;;1.05;0.95;;;23.60;49.80;24.00;101327.00;;;;5014124;27;99065;-68
2022/05/19 07:34:04;;;;;;;2.85;0.80;;;23.70;49.70;24.10;101325.00;;;;5015272;27;88698;-67
2022/05/19 07:36:30;;;;;;;2.38;1.38;;;23.90;48.50;24.20;101319.00;;;;5014211;27;89000;-70
2022/05/19 07:38:56;;;;;;;2.92;0.95;;;23.90;48.90;24.40;101321.00;;;;5005800;27;92775;-74
2022/05/19 07:41:22;;;;;;;1.52;1.08;;;24.10;48.60;24.50;101326.00;;;;4994639;28;88982;-73
2022/05/19 07:43:48;;;;;;;1.08;0.90;;;24.20;47.90;24.60;101324.00;;;;4993753;28;117882;-71
2022/05/19 07:46:14;;;;;;;1.23;1.00;;;24.30;48.00;24.80;101321.00;;;;4995395;27;87648;-73
2022/05/19 07:48:39;;;;;;;2.25;1.20;;;24.50;47.40;24.90;101313.00;;;;4994818;27;108836;-73
2022/05/19 07:51:05;;;;;;;0.70;0.70;;;24.60;46.40;25.00;101306.00;;;;4993611;27;117724;-71
2022/05/19 07:53:34;;;;;;;0.60;0.55;;;24.70;46.30;25.00;101308.00;;;;4997692;27;88593;-70
2022/05/19 07:56:00;;;;;;;0.60;0.60;;;24.80;45.90;25.10;101311.00;;;;5014863;27;87818;-74
2022/05/19 07:58:26;;;;;;;0.60;0.60;;;24.80;45.20;25.10;101304.00;;;;5014017;27;87767;-73
2022/05/19 08:00:52;;;;;;;0.63;0.63;;;24.80;44.70;25.00;101300.00;;;;5004028;27;119684;-70
2022/05/19 08:03:19;;;;;;;0.98;0.73;;;24.80;44.40;25.10;101307.00;;;;5014288;27;88896;-74
2022/05/19 08:05:44;;;;;;;2.67;0.50;;;24.90;44.90;25.20;101306.00;;;;4989107;28;87934;-70
2022/05/19 08:08:10;;;;;;;0.70;0.68;;;24.90;44.60;25.30;101303.00;;;;4994360;27;108528;-70
2022/05/19 08:10:36;;;;;;;2.40;1.08;;;25.00;44.20;25.40;101301.00;;;;4993778;27;117646;-71
2022/05/19 08:15:47;;;;;;;0.40;0.40;;;25.20;43.20;25.70;101291.00;;;;4991871;28;87855;-71
2022/05/19 08:18:23;;;;;;;1.27;0.77;;;25.30;43.60;25.80;101281.00;;;;4995179;27;89703;-73
2022/05/19 08:20:58;;;;;;;0.85;0.80;;;25.50;43.00;26.00;101283.00;;;;4994205;27;88120;-73
2022/05/19 08:23:35;;;;;;;0.93;0.88;;;25.70;42.00;26.10;101288.00;;;;4995097;27;88344;-74
2022/05/19 08:26:02;;;;;;;1.33;0.65;;;25.80;42.00;26.20;101285.00;;;;4983680;27;88701;-72
2022/05/19 08:28:31;;;;;;;0.60;0.50;;;25.90;40.80;26.20;101293.00;;;;5011210;27;88993;-72
2022/05/19 08:31:02;;;;;;;0.73;0.70;;;26.00;39.20;26.20;101295.00;;;;4994034;27;88049;-71
2022/05/19 08:33:28;;;;;;;2.13;0.63;;;25.90;39.80;26.20;101288.00;;;;4975269;28;87933;-72
2022/05/19 08:35:54;;;;;;;0.63;0.52;;;25.90;39.50;26.20;101286.00;;;;4960293;28;87891;-71
2022/05/19 08:38:21;;;;;;;1.27;1.05;;;25.90;39.20;26.20;101276.00;;;;4997330;27;109919;-72
2022/05/19 08:41:00;;;;;;;1.17;0.70;;;26.00;38.90;26.30;101271.00;;;;5010956;27;88831;-70
2022/05/19 08:43:39;;;;;;;0.95;0.73;;;26.00;39.30;26.40;101275.00;;;;4962230;28;88284;-71
2022/05/19 08:46:04;;;;;;;1.08;0.70;;;26.10;38.00;26.30;101266.00;;;;5000853;27;101785;-71
2022/05/19 08:48:31;;;;;;;1.20;0.85;;;26.10;38.00;26.30;101273.00;;;;4999166;27;87746;-74
2022/05/19 08:51:03;;;;;;;1.00;0.77;;;26.00;38.40;26.40;101271.00;;;;5016513;27;89863;-72
2022/05/19 08:53:38;;;;;;;0.35;0.35;;;26.10;38.50;26.40;101267.00;;;;4998510;27;89643;-70
2022/05/19 08:56:26;;;;;;;2.92;0.95;;;26.10;38.70;26.60;101264.00;;;;4974918;27;87763;-75
2022/05/19 08:59:31;;;;;;;2.45;0.77;;;26.20;38.40;26.60;101254.00;;;;4994390;28;87822;-71
2022/05/19 09:02:09;;;;;;;1.15;1.05;;;26.30;38.30;26.70;101260.00;;;;4978707;27;87828;-74
2022/05/19 09:05:02;;;;;;;0.70;0.50;;;26.40;38.00;26.90;101257.00;;;;4978286;28;87811;-72
2022/05/19 09:07:58;;;;;;;3.40;1.17;;;26.50;37.60;27.00;101260.00;;;;4978066;28;87663;-74
2022/05/19 09:11:06;;;;;;;0.50;0.50;;;26.60;37.30;27.00;101258.00;;;;5014360;27;87004;-72
2022/05/19 09:13:52;;;;;;;0.82;0.75;;;26.70;37.10;27.00;101260.00;;;;5005290;27;107027;-70
2022/05/19 09:16:25;;;;;;;0.50;0.50;;;26.70;37.20;27.00;101249.00;;;;4938724;28;89396;-72
2022/05/19 09:19:07;;;;;;;4.03;0.93;;;26.60;37.00;27.00;101249.00;;;;4990403;28;89028;-71
2022/05/19 09:21:40;;;;;;;0.60;0.40;;;26.70;37.20;27.20;101256.00;;;;4996527;27;100396;-74
2022/05/19 09:24:06;;;;;;;0.65;0.55;;;26.80;37.20;27.30;101255.00;;;;4977765;28;89816;-70
2022/05/19 09:26:41;;;;;;;0.65;0.50;;;27.00;37.30;27.40;101256.00;;;;5008829;27;118000;-74
2022/05/19 09:29:13;;;;;;;0.75;0.75;;;27.10;36.70;27.50;101256.00;;;;5011136;27;87660;-72
2022/05/19 09:31:54;;;;;;;0.60;0.45;;;27.20;36.40;27.60;101261.00;;;;4978490;28;87906;-74
2022/05/19 09:34:27;;;;;;;2.97;0.88;;;27.30;36.10;27.70;101268.00;;;;4996590;28;87785;-72
2022/05/19 09:37:36;;;;;;;1.02;0.60;;;27.30;35.40;27.80;101265.00;;;;4997425;27;87859;-72
2022/05/19 09:40:12;;;;;;;0.93;0.80;;;27.40;35.40;27.90;101256.00;;;;4991057;27;88026;-75
2022/05/19 09:43:04;;;;;;;0.90;0.68;;;27.50;35.30;27.90;101251.00;;;;5017288;27;87771;-71
2022/05/19 09:45:49;;;;;;;1.17;0.70;;;27.50;35.10;27.80;101246.00;;;;4998861;27;88903;-71
2022/05/19 09:48:25;;;;;;;1.63;0.43;;;27.50;34.90;27.80;101265.00;;;;5016298;27;100194;-74
2022/05/19 09:50:51;;;;;;;0.40;0.40;;;27.50;34.70;27.80;101250.00;;;;5015129;27;87932;-72
2022/05/19 09:53:25;;;;;;;4.88;0.47;;;27.40;34.80;27.90;101253.00;;;;5015638;27;94318;-73
2022/05/19 09:56:09;;;;;;;1.60;0.55;;;27.50;35.40;28.00;101250.00;;;;5013066;27;88074;-74
2022/05/19 09:58:48;;;;;;;6.53;0.80;;;27.60;34.80;28.10;101246.00;;;;4994452;27;87777;-71
2022/05/19 10:01:27;;;;;;;0.60;0.55;;;27.70;34.70;28.20;101250.00;;;;5017004;27;87637;-71
2022/05/19 10:04:02;;;;;;;0.65;0.65;;;27.70;35.10;28.40;101246.00;;;;5017221;27;86893;-71
2022/05/19 10:06:58;;;;;;;1.83;0.70;;;27.90;35.80;28.70;101247.00;;;;4979584;27;87888;-75
2022/05/19 10:09:34;;;;;;;0.70;0.60;;;28.10;36.00;29.10;101244.00;;;;4994501;28;87950;-74
2022/05/19 10:12:13;;;;;;;1.35;0.77;;;28.50;34.70;29.30;101232.00;;;;4990457;28;89100;-73
2022/05/19 10:14:40;;;;;;;1.65;0.93;;;28.70;34.60;29.50;101231.00;;;;4977556;28;88150;-76
2022/05/19 10:17:41;;;;;;;1.02;0.65;;;28.90;34.00;29.50;101237.00;;;;4979057;27;88568;-74
2022/05/19 10:20:25;;;;;;;0.60;0.57;;;29.00;33.80;29.30;101229.00;;;;4995906;27;87909;-71
2022/05/19 10:23:23;;;;;;;1.05;0.57;;;28.90;33.80;29.30;101230.00;;;;4996159;28;87902;-72
2022/05/19 10:26:19;;;;;;;1.73;1.17;;;28.90;34.50;29.40;101228.00;;;;4989039;27;87915;-71
2022/05/19 10:32:29;;;;;;;0.57;0.55;;;28.90;34.10;29.70;101218.00;;;;5008036;27;87538;-75
2022/05/19 10:35:32;;;;;;;0.63;0.63;;;29.10;34.00;29.80;101213.00;;;;4976370;28;103990;-75
2022/05/19 10:38:37;;;;;;;1.52;1.42;;;29.20;33.90;30.00;101218.00;;;;4995910;28;87796;-73
2022/05/19 10:41:49;;;;;;;0.68;0.68;;;29.40;33.60;30.00;101212.00;;;;4976944;28;109742;-73
2022/05/19 10:44:55;;;;;;;0.65;0.65;;;29.40;33.30;30.00;101211.00;;;;4995731;27;91329;-71
2022/05/19 10:47:58;;;;;;;7.55;0.88;;;29.40;33.40;30.00;101200.00;;;;4960032;28;89835;-71
2022/05/19 10:50:35;;;;;;;0.40;0.40;;;29.50;33.30;30.00;101199.00;;;;4983980;27;87542;-71
2022/05/19 10:53:23;;;;;;;1.05;0.90;;;29.50;33.00;30.10;101195.00;;;;4995860;28;88558;-71
2022/05/19 10:56:01;;;;;;;0.65;0.47;;;29.50;33.10;30.20;101188.00;;;;4976161;28;88078;-74
2022/05/19 10:58:39;;;;;;;9.18;4.40;;;29.60;32.30;30.20;101186.00;;;;4995082;27;87543;-72
2022/05/19 11:02:07;;;;;;;0.50;0.38;;;29.70;32.80;30.40;101191.00;;;;5001766;27;88429;-71
2022/05/19 11:05:13;;;;;;;0.82;0.63;;;29.80;32.90;30.50;101184.00;;;;5015853;27;88476;-75
2022/05/19 11:08:18;;;;;;;0.75;0.50;;;30.00;31.70;30.50;101195.00;;;;4995098;28;87839;-75
2022/05/19 11:11:09;;;;;;;1.88;0.95;;;30.00;32.20;30.60;101195.00;;;;4999039;27;88882;-71
2022/05/19 11:14:02;;;;;;;0.82;0.55;;;30.00;32.20;30.80;101187.00;;;;4998281;27;99072;-72
2022/05/19 11:17:00;;;;;;;1.75;0.50;;;30.20;31.60;30.90;101179.00;;;;4978169;27;87822;-74
2022/05/19 11:19:43;;;;;;;1.08;0.40;;;30.40;31.90;31.10;101186.00;;;;5014970;27;88106;-73
2022/05/19 11:22:17;;;;;;;0.43;0.40;;;30.50;31.60;31.10;101175.00;;;;4981904;28;87715;-75